Time;durP1;ratioP1;P1;durP2;ratioP2;P2;SDS_P1;SDS_P2;PMS_P1;PMS_P2;Temp;Humidity;BMP_temperature;BMP_pressure;BME280_temperature;BME280_humidity;BME280_pressure;Samples;Min_cycle;Max_cycle;Signal;HPM_P1;HPM_P2
2023/01/07 00:02:20;;;;;;;4.07;2.53;;;;;;;7.40;100.00;99358.31;4944817;29;20039;-68
2023/01/07 00:05:05;;;;;;;3.47;2.33;;;;;;;7.43;100.00;99358.16;4954297;29;20047;-68
2023/01/07 00:07:50;;;;;;;5.03;2.67;;;;;;;7.52;100.00;99357.72;4929297;29;20412;-68
2023/01/07 00:10:35;;;;;;;4.03;2.45;;;;;;;7.55;100.00;99358.50;4951077;28;20085;-68
2023/01/07 00:13:19;;;;;;;5.18;2.85;;;;;;;7.58;100.00;99350.53;4958731;28;20051;-68
2023/01/07 00:16:08;;;;;;;4.43;2.42;;;;;;;7.58;100.00;99360.97;4951750;29;20058;-68
2023/01/07 00:18:55;;;;;;;4.53;2.70;;;;;;;7.58;100.00;99353.16;4953180;29;20047;-67
2023/01/07 00:21:40;;;;;;;6.50;3.17;;;;;;;7.40;100.00;99360.91;4953726;29;20031;-67
2023/01/07 00:24:25;;;;;;;4.88;2.85;;;;;;;7.35;100.00;99363.75;4953820;29;20042;-66
2023/01/07 00:27:09;;;;;;;5.38;3.10;;;;;;;7.38;100.00;99375.78;4915336;29;20066;-67
2023/01/07 00:29:54;;;;;;;4.68;2.50;;;;;;;7.45;100.00;99377.19;4950882;28;20402;-67
2023/01/07 00:32:48;;;;;;;6.00;3.10;;;;;;;7.50;100.00;99383.06;4952278;28;20098;-67
2023/01/07 00:35:35;;;;;;;6.47;3.40;;;;;;;7.50;100.00;99376.97;4946243;29;20113;-68
2023/01/07 00:38:20;;;;;;;5.30;2.85;;;;;;;7.53;100.00;99379.44;4939401;29;20043;-67
2023/01/07 00:41:05;;;;;;;6.60;3.13;;;;;;;7.55;100.00;99371.56;4948669;29;20113;-68
2023/01/07 00:43:49;;;;;;;5.20;2.78;;;;;;;7.58;100.00;99376.63;4925170;29;20062;-67
2023/01/07 00:46:35;;;;;;;5.05;2.95;;;;;;;7.58;100.00;99377.47;4952801;28;20455;-68
2023/01/07 00:49:19;;;;;;;6.60;3.38;;;;;;;7.57;100.00;99367.13;4936185;29;20181;-68
2023/01/07 00:52:05;;;;;;;5.82;3.75;;;;;;;7.49;100.00;99368.31;4952862;28;20502;-67
2023/01/07 00:54:49;;;;;;;7.20;3.97;;;;;;;7.47;100.00;99371.91;4938526;29;20067;-68
2023/01/07 00:57:35;;;;;;;6.43;3.78;;;;;;;7.46;100.00;99378.06;4936120;29;20047;-68
2023/01/07 01:00:21;;;;;;;6.18;3.55;;;;;;;7.46;100.00;99380.66;4940284;29;20452;-67
2023/01/07 01:03:07;;;;;;;5.50;3.60;;;;;;;7.43;100.00;99386.00;4951785;28;20113;-68
2023/01/07 01:05:53;;;;;;;6.15;3.83;;;;;;;7.43;100.00;99386.84;4944807;29;20047;-68
2023/01/07 01:08:44;;;;;;;5.68;3.47;;;;;;;7.41;100.00;99391.28;4929249;29;20043;-67
2023/01/07 01:11:29;;;;;;;7.07;4.03;;;;;;;7.43;100.00;99391.19;4931134;29;20051;-67
2023/01/07 01:14:14;;;;;;;6.07;3.67;;;;;;;7.46;100.00;99385.88;4921717;29;20086;-67
2023/01/07 01:16:59;;;;;;;7.20;3.83;;;;;;;7.49;100.00;99394.38;4934722;29;20077;-67
2023/01/07 01:19:44;;;;;;;5.55;3.63;;;;;;;7.48;100.00;99392.69;4925011;29;20162;-67
2023/01/07 01:22:28;;;;;;;8.43;5.05;;;;;;;7.27;100.00;99404.94;4943867;29;20051;-67
2023/01/07 01:25:14;;;;;;;5.10;3.78;;;;;;;6.90;100.00;99402.19;4952676;29;20114;-69
2023/01/07 01:27:58;;;;;;;6.95;4.47;;;;;;;6.81;100.00;99406.03;4938132;29;20078;-67
2023/01/07 01:30:44;;;;;;;5.93;3.95;;;;;;;6.88;100.00;99398.81;4942372;29;20546;-68
2023/01/07 01:33:30;;;;;;;6.22;3.85;;;;;;;6.95;100.00;99397.66;4921450;29;20074;-68
2023/01/07 01:36:14;;;;;;;7.90;4.20;;;;;;;6.91;100.00;99406.50;4921696;29;20714;-67
2023/01/07 01:38:59;;;;;;;8.32;4.95;;;;;;;6.84;100.00;99400.69;4938262;29;20046;-68
2023/01/07 01:41:48;;;;;;;6.65;4.47;;;;;;;6.93;100.00;99404.66;4943163;29;20046;-67
2023/01/07 01:44:42;;;;;;;8.35;4.55;;;;;;;6.99;100.00;99407.00;4937862;29;20058;-67
2023/01/07 01:47:37;;;;;;;8.85;4.82;;;;;;;7.06;100.00;99398.91;4939222;29;20171;-67
2023/01/07 01:50:42;;;;;;;8.70;5.22;;;;;;;7.14;100.00;99405.50;4917892;29;20146;-68
2023/01/07 01:53:31;;;;;;;8.75;5.18;;;;;;;7.17;100.00;99395.81;4932690;29;20070;-68
2023/01/07 01:56:26;;;;;;;8.48;5.18;;;;;;;7.22;100.00;99396.47;4932233;29;20338;-67
2023/01/07 01:59:17;;;;;;;8.63;5.82;;;;;;;7.27;100.00;99397.13;4934134;29;20040;-68
2023/01/07 02:02:03;;;;;;;7.90;5.47;;;;;;;7.28;100.00;99390.97;4936416;29;20077;-68
2023/01/07 02:04:48;;;;;;;9.63;5.45;;;;;;;7.29;100.00;99397.91;4926660;29;20427;-66
2023/01/07 02:07:32;;;;;;;11.18;5.13;;;;;;;7.29;100.00;99384.00;4935795;29;20036;-67
2023/01/07 02:10:20;;;;;;;9.10;5.78;;;;;;;7.30;100.00;99378.72;4936081;29;20058;-67
2023/01/07 02:13:37;;;;;;;7.57;5.55;;;;;;;7.29;100.00;99374.44;4936677;29;20063;-68
2023/01/07 02:16:32;;;;;;;9.43;5.72;;;;;;;7.31;100.00;99370.00;4930562;29;20048;-67
2023/01/07 02:19:37;;;;;;;12.30;6.28;;;;;;;7.32;100.00;99374.31;4936479;29;20054;-66
2023/01/07 02:22:41;;;;;;;9.30;5.40;;;;;;;7.34;100.00;99374.25;4936733;29;20478;-67
2023/01/07 02:25:47;;;;;;;9.57;5.88;;;;;;;7.33;100.00;99372.56;4936207;29;20039;-68
2023/01/07 02:28:40;;;;;;;10.15;5.95;;;;;;;7.32;100.00;99376.91;4926672;29;20122;-68
2023/01/07 02:31:44;;;;;;;12.20;7.30;;;;;;;7.34;100.00;99372.47;4930115;29;20053;-67
2023/01/07 02:34:45;;;;;;;9.82;6.32;;;;;;;7.39;100.00;99375.69;4935838;29;20048;-68
2023/01/07 02:37:55;;;;;;;12.30;6.50;;;;;;;7.40;100.00;99371.34;4935155;29;20407;-67
2023/01/07 02:40:40;;;;;;;8.20;5.95;;;;;;;7.42;100.00;99372.13;4937526;29;20043;-68
2023/01/07 02:43:48;;;;;;;10.82;5.93;;;;;;;7.38;100.00;99366.19;4877199;29;20441;-67
2023/01/07 02:46:46;;;;;;;10.35;5.88;;;;;;;7.38;100.00;99368.81;4864149;29;20053;-68
2023/01/07 02:49:31;;;;;;;10.23;6.50;;;;;;;7.37;100.00;99371.50;4878150;29;20061;-67
2023/01/07 02:52:27;;;;;;;10.02;6.28;;;;;;;7.37;100.00;99371.50;4895521;29;20060;-67
2023/01/07 02:55:20;;;;;;;9.25;5.53;;;;;;;7.37;100.00;99377.56;4895688;29;20064;-67
2023/01/07 02:58:31;;;;;;;9.80;6.30;;;;;;;7.40;100.00;99371.34;4888920;29;20127;-68
2023/01/07 03:01:25;;;;;;;11.23;6.13;;;;;;;7.42;100.00;99377.34;4894555;29;20052;-67
2023/01/07 03:04:23;;;;;;;8.52;5.63;;;;;;;7.41;100.00;99377.41;4894716;29;20079;-68
2023/01/07 03:07:25;;;;;;;8.15;5.57;;;;;;;7.41;100.00;99374.81;4882316;29;20064;-68
2023/01/07 03:10:23;;;;;;;8.45;6.07;;;;;;;7.39;100.00;99359.22;4882445;29;20107;-66
2023/01/07 03:13:19;;;;;;;8.35;5.40;;;;;;;7.40;100.00;99363.53;4882282;29;20053;-67
2023/01/07 03:16:16;;;;;;;8.38;5.50;;;;;;;7.38;100.00;99362.75;4890009;29;20053;-66
2023/01/07 03:19:32;;;;;;;9.32;5.72;;;;;;;7.37;100.00;99366.28;4884425;29;20756;-67
2023/01/07 03:22:21;;;;;;;10.07;5.30;;;;;;;7.37;100.00;99364.53;4945570;29;20055;-69
2023/01/07 03:25:05;;;;;;;8.68;5.68;;;;;;;7.35;100.00;99361.13;4932567;29;20106;-69
2023/01/07 03:27:52;;;;;;;8.95;5.40;;;;;;;7.37;100.00;99363.66;4934328;29;20040;-67
2023/01/07 03:30:37;;;;;;;7.57;5.53;;;;;;;7.36;100.00;99354.16;4935872;29;20051;-67
2023/01/07 03:33:27;;;;;;;10.23;6.03;;;;;;;7.34;100.00;99358.59;4920999;29;20044;-68
2023/01/07 03:36:15;;;;;;;7.95;5.65;;;;;;;7.40;100.00;99355.69;4934468;29;20130;-67
2023/01/07 03:39:01;;;;;;;9.77;5.65;;;;;;;7.42;100.00;99353.88;4935625;29;20043;-67
2023/01/07 03:44:54;;;;;;;7.25;4.70;;;;;;;7.42;100.00;99347.81;4926549;29;20593;-67
2023/01/07 03:47:47;;;;;;;7.13;4.63;;;;;;;7.45;100.00;99350.28;4933281;29;20051;-67
2023/01/07 03:50:33;;;;;;;6.82;4.50;;;;;;;7.46;100.00;99351.97;4942347;29;20055;-66
2023/01/07 03:53:17;;;;;;;6.65;4.50;;;;;;;7.48;100.00;99356.19;4925736;29;20106;-67
2023/01/07 03:56:06;;;;;;;7.30;4.53;;;;;;;7.46;100.00;99351.97;4939687;29;20055;-67
2023/01/07 03:58:51;;;;;;;6.68;4.45;;;;;;;7.48;100.00;99357.94;4952695;29;20122;-68
2023/01/07 04:01:35;;;;;;;6.32;4.13;;;;;;;7.54;100.00;99349.00;4940389;29;20051;-69
2023/01/07 04:04:20;;;;;;;5.55;3.95;;;;;;;7.55;100.00;99350.69;4920155;29;20047;-68
2023/01/07 04:07:06;;;;;;;7.38;3.70;;;;;;;7.58;100.00;99346.19;4949761;29;20051;-69
2023/01/07 04:09:50;;;;;;;5.47;3.92;;;;;;;7.58;100.00;99345.31;4933770;29;20086;-69
2023/01/07 04:12:37;;;;;;;6.05;3.78;;;;;;;7.56;100.00;99348.00;4953829;29;20042;-68
2023/01/07 04:15:21;;;;;;;6.82;3.70;;;;;;;7.52;100.00;99342.09;4937288;29;20043;-69
2023/01/07 04:18:07;;;;;;;4.75;3.22;;;;;;;7.51;100.00;99347.38;4939551;29;20130;-68
2023/01/07 04:20:52;;;;;;;6.10;3.15;;;;;;;7.52;100.00;99339.47;4947980;28;20047;-68
2023/01/07 04:23:37;;;;;;;6.30;4.30;;;;;;;7.53;100.00;99337.72;4953660;29;20043;-68
2023/01/07 04:26:22;;;;;;;6.47;3.95;;;;;;;7.50;100.00;99349.16;4952023;29;20054;-69
2023/01/07 04:29:07;;;;;;;4.60;3.45;;;;;;;7.50;100.00;99330.06;4939256;29;20567;-68
2023/01/07 04:31:52;;;;;;;4.53;3.00;;;;;;;7.52;100.00;99336.88;4931606;29;20483;-69
2023/01/07 04:34:40;;;;;;;4.22;2.90;;;;;;;7.53;100.00;99337.72;4939722;29;20120;-68
2023/01/07 04:37:25;;;;;;;5.47;3.50;;;;;;;7.50;100.00;99330.91;4931278;29;20495;-70
2023/01/07 04:40:10;;;;;;;4.90;3.30;;;;;;;7.51;100.00;99329.97;4944049;29;20058;-68
2023/01/07 04:42:56;;;;;;;5.05;3.40;;;;;;;7.48;100.00;99330.13;4949614;29;20047;-68
2023/01/07 04:45:41;;;;;;;4.75;3.30;;;;;;;7.48;100.00;99330.13;4938980;29;20173;-69
2023/01/07 04:48:25;;;;;;;4.53;3.05;;;;;;;7.48;100.00;99327.53;4938791;29;20506;-68
2023/01/07 04:51:12;;;;;;;5.13;3.17;;;;;;;7.51;100.00;99323.91;4928422;29;20114;-68
2023/01/07 04:53:57;;;;;;;4.60;3.35;;;;;;;7.50;100.00;99319.63;4939437;29;20051;-69
2023/01/07 04:56:44;;;;;;;3.38;2.65;;;;;;;7.50;100.00;99328.31;4925119;29;20483;-69
2023/01/07 04:59:29;;;;;;;5.57;3.05;;;;;;;7.49;100.00;99328.38;4939131;29;20047;-69
2023/01/07 05:02:16;;;;;;;4.93;3.00;;;;;;;7.49;100.00;99325.75;4943748;28;20055;-68
2023/01/07 05:05:01;;;;;;;4.82;3.00;;;;;;;7.48;100.00;99319.69;4938849;29;20047;-69
2023/01/07 05:07:46;;;;;;;5.65;3.00;;;;;;;7.49;100.00;99321.38;4941247;29;20044;-69
2023/01/07 05:10:32;;;;;;;4.95;2.97;;;;;;;7.44;100.00;99320.75;4938650;29;20395;-69
2023/01/07 05:13:21;;;;;;;4.57;2.97;;;;;;;7.43;100.00;99319.06;4944276;29;20101;-68
2023/01/07 05:16:06;;;;;;;3.60;2.42;;;;;;;7.44;100.00;99312.91;4925373;29;20051;-69
2023/01/07 05:18:51;;;;;;;3.97;2.95;;;;;;;7.44;100.00;99323.34;4933903;29;20040;-69
2023/01/07 05:21:35;;;;;;;3.83;2.80;;;;;;;7.39;100.00;99314.91;4934216;29;20122;-69
2023/01/07 05:24:20;;;;;;;5.38;3.05;;;;;;;7.36;100.00;99320.28;4938662;29;20039;-69
2023/01/07 05:27:05;;;;;;;6.10;3.00;;;;;;;7.30;100.00;99317.94;4942161;29;20071;-69
2023/01/07 05:29:50;;;;;;;4.90;2.63;;;;;;;7.29;100.00;99313.63;4938063;29;20143;-69
2023/01/07 05:32:36;;;;;;;4.38;2.58;;;;;;;7.20;100.00;99301.88;4945145;29;20044;-68
2023/01/07 05:35:21;;;;;;;4.50;3.00;;;;;;;7.19;100.00;99311.47;4952807;29;20043;-69
2023/01/07 05:38:05;;;;;;;5.50;2.83;;;;;;;7.16;100.00;99303.78;4947450;29;20122;-69
2023/01/07 05:40:51;;;;;;;3.20;2.70;;;;;;;7.09;100.00;99313.66;4952475;29;20049;-69
2023/01/07 05:43:40;;;;;;;4.50;2.63;;;;;;;7.01;100.00;99305.31;4930579;29;20102;-69
2023/01/07 05:46:26;;;;;;;4.32;2.88;;;;;;;6.97;100.00;99307.22;4940114;28;20063;-69
2023/01/07 05:49:11;;;;;;;3.65;2.42;;;;;;;6.94;100.00;99309.09;4939899;29;20047;-69
2023/01/07 05:51:55;;;;;;;4.20;2.70;;;;;;;6.95;100.00;99308.22;4937741;29;20089;-68
2023/01/07 05:54:40;;;;;;;5.18;2.53;;;;;;;6.99;100.00;99300.19;4952655;29;20500;-68
2023/01/07 05:57:25;;;;;;;4.78;2.45;;;;;;;6.98;100.00;99303.72;4951843;29;20046;-69
2023/01/07 06:00:10;;;;;;;4.30;2.38;;;;;;;6.92;100.00;99309.19;4952668;29;20597;-68
2023/01/07 06:02:58;;;;;;;3.17;1.80;;;;;;;6.82;100.00;99313.94;4938897;29;20044;-70
2023/01/07 06:05:43;;;;;;;8.52;1.75;;;;;;;6.83;100.00;99312.19;4949323;29;20071;-66
2023/01/07 06:08:33;;;;;;;2.45;1.60;;;;;;;6.74;100.00;99310.88;4953961;29;20055;-67
2023/01/07 06:11:18;;;;;;;2.80;1.80;;;;;;;6.66;100.00;99316.38;4956247;29;20051;-71
2023/01/07 06:14:05;;;;;;;2.65;2.00;;;;;;;6.59;100.00;99312.38;4951857;29;20513;-68
2023/01/07 06:16:49;;;;;;;3.97;2.00;;;;;;;6.49;100.00;99309.31;4952644;29;20039;-68
2023/01/07 06:19:34;;;;;;;3.20;2.15;;;;;;;6.38;100.00;99304.59;4951421;28;20089;-68
2023/01/07 06:22:19;;;;;;;3.03;1.95;;;;;;;6.37;100.00;99308.94;4940586;28;20122;-69
2023/01/07 06:25:04;;;;;;;3.85;1.90;;;;;;;6.45;100.00;99307.75;4952132;29;20047;-68
2023/01/07 06:27:48;;;;;;;4.35;2.30;;;;;;;6.47;100.00;99308.53;4936977;29;20047;-65
2023/01/07 06:30:34;;;;;;;3.22;2.28;;;;;;;6.47;100.00;99317.19;4952584;29;20071;-68
2023/01/07 06:33:19;;;;;;;2.65;1.70;;;;;;;6.49;100.00;99307.56;4951740;29;20094;-70
2023/01/07 06:36:04;;;;;;;2.13;1.70;;;;;;;6.51;100.00;99321.34;4951640;29;20134;-68
2023/01/07 06:38:48;;;;;;;2.67;1.55;;;;;;;6.51;100.00;99326.56;4952011;29;20066;-69
2023/01/07 06:41:33;;;;;;;2.72;1.90;;;;;;;6.61;100.00;99324.41;4939333;29;20563;-67
2023/01/07 06:44:17;;;;;;;5.60;2.75;;;;;;;6.69;100.00;99318.03;4936464;29;20054;-66
2023/01/07 06:47:02;;;;;;;4.80;3.08;;;;;;;6.96;100.00;99333.34;4956219;29;20125;-66
2023/01/07 06:49:46;;;;;;;4.32;2.88;;;;;;;7.42;100.00;99327.81;4955227;29;20044;-65
2023/01/07 06:52:31;;;;;;;4.18;3.10;;;;;;;7.83;100.00;99329.38;4955690;28;20051;-66
2023/01/07 06:55:16;;;;;;;4.28;1.75;;;;;;;8.20;100.00;99331.94;4950909;29;20452;-67
2023/01/07 06:58:01;;;;;;;5.65;2.70;;;;;;;9.17;100.00;99328.81;4955634;29;20074;-65
2023/01/07 07:00:47;;;;;;;3.95;2.38;;;;;;;9.21;97.93;99327.72;4944569;29;20043;-64
2023/01/07 07:03:31;;;;;;;3.05;2.08;;;;;;;9.24;93.61;99332.78;4950591;29;20097;-65
2023/01/07 07:06:16;;;;;;;3.35;2.47;;;;;;;9.29;92.27;99341.22;4947512;28;20048;-64
2023/01/07 07:09:01;;;;;;;3.03;2.05;;;;;;;9.40;92.53;99330.16;4954003;29;20380;-64
2023/01/07 07:11:45;;;;;;;3.72;2.38;;;;;;;9.76;89.61;99330.84;4954424;29;20150;-64
2023/01/07 07:14:30;;;;;;;3.22;2.10;;;;;;;10.06;87.69;99329.19;4954252;29;20118;-66
2023/01/07 07:17:15;;;;;;;3.30;2.30;;;;;;;10.27;86.47;99339.34;4954453;29;20109;-65
2023/01/07 07:20:00;;;;;;;2.55;1.75;;;;;;;10.46;83.86;99329.50;4949868;29;20035;-65
2023/01/07 07:22:45;;;;;;;1.90;1.60;;;;;;;10.49;82.59;99325.88;4954003;29;20043;-69
2023/01/07 07:25:30;;;;;;;2.45;1.48;;;;;;;10.64;81.81;99331.13;4954067;29;20036;-66
2023/01/07 07:28:15;;;;;;;2.83;1.77;;;;;;;10.88;81.30;99335.81;4952203;29;20059;-67
2023/01/07 07:31:00;;;;;;;2.35;1.35;;;;;;;11.11;79.10;99337.03;4953877;29;20076;-68
2023/01/07 07:33:46;;;;;;;2.55;1.90;;;;;;;11.26;79.09;99331.78;4953666;29;20423;-68
2023/01/07 07:36:32;;;;;;;2.75;1.90;;;;;;;11.46;77.67;99327.88;4954794;29;20047;-68
2023/01/07 07:39:16;;;;;;;2.60;1.80;;;;;;;11.57;77.21;99332.47;4939082;29;20043;-65
2023/01/07 07:42:04;;;;;;;2.22;1.70;;;;;;;11.89;75.19;99328.69;4951700;29;20058;-67
2023/01/07 07:44:49;;;;;;;3.80;1.70;;;;;;;12.17;73.77;99326.91;4939455;29;20515;-68
2023/01/07 07:47:35;;;;;;;2.17;1.52;;;;;;;12.41;72.70;99327.06;4953342;29;20043;-66
2023/01/07 07:50:19;;;;;;;2.22;1.48;;;;;;;12.69;71.63;99325.19;4939112;29;20388;-64
2023/01/07 07:53:08;;;;;;;3.83;1.42;;;;;;;12.97;70.07;99325.06;4953475;29;20154;-66
2023/01/07 07:55:53;;;;;;;2.58;1.65;;;;;;;13.04;70.46;99328.13;4940523;29;20044;-65
2023/01/07 07:58:37;;;;;;;2.30;1.67;;;;;;;13.18;69.45;99325.34;4953313;29;20047;-63
2023/01/07 08:01:22;;;;;;;4.28;2.05;;;;;;;13.49;68.76;99319.69;4952827;29;20051;-63
2023/01/07 08:04:09;;;;;;;4.40;2.05;;;;;;;13.88;68.48;99311.66;4941190;28;20125;-65
2023/01/07 08:06:54;;;;;;;5.50;2.25;;;;;;;13.62;66.98;99316.19;4952435;29;20054;-62
2023/01/07 08:09:39;;;;;;;3.90;2.00;;;;;;;13.58;67.77;99314.75;4954268;29;20058;-65
2023/01/07 08:12:23;;;;;;;4.03;2.63;;;;;;;13.81;66.67;99310.41;4950712;29;20047;-63
2023/01/07 08:15:08;;;;;;;4.60;2.60;;;;;;;13.51;68.32;99315.16;4952163;29;20614;-63
2023/01/07 08:18:00;;;;;;;4.25;2.33;;;;;;;13.14;68.70;99315.13;4943913;29;20043;-64
2023/01/07 08:20:46;;;;;;;3.83;2.88;;;;;;;13.30;68.99;99309.66;4951311;29;20047;-64
2023/01/07 08:23:30;;;;;;;4.72;2.85;;;;;;;13.29;68.48;99318.47;4950911;29;20078;-62
2023/01/07 08:26:15;;;;;;;6.25;3.40;;;;;;;12.88;68.89;99317.78;4938074;29;20047;-64
2023/01/07 08:29:00;;;;;;;4.60;3.17;;;;;;;12.76;69.86;99309.00;4954010;29;20047;-66
2023/01/07 08:31:44;;;;;;;4.22;2.85;;;;;;;13.22;69.57;99317.25;4948278;28;20042;-64
2023/01/07 08:34:29;;;;;;;5.32;2.83;;;;;;;12.96;67.81;99320.75;4948580;29;20102;-64
2023/01/07 08:37:13;;;;;;;6.15;2.90;;;;;;;12.29;70.34;99318.22;4951691;29;20074;-63
2023/01/07 08:39:58;;;;;;;6.13;3.20;;;;;;;11.59;73.36;99314.81;4938247;29;20085;-63
2023/01/07 08:42:43;;;;;;;5.13;2.92;;;;;;;11.38;74.98;99323.13;4949899;29;20058;-63
2023/01/07 08:45:29;;;;;;;3.95;2.80;;;;;;;11.34;74.69;99324.28;4953020;29;20055;-63
2023/01/07 08:48:13;;;;;;;6.70;2.42;;;;;;;11.00;79.99;99329.81;4928255;29;20048;-65
2023/01/07 08:50:58;;;;;;;4.75;2.90;;;;;;;10.57;78.64;99331.50;4936549;29;20051;-65
2023/01/07 08:53:43;;;;;;;3.05;2.45;;;;;;;10.52;80.16;99325.69;4953604;29;20055;-67
2023/01/07 08:56:27;;;;;;;3.63;2.55;;;;;;;10.65;80.37;99322.31;4956003;29;20134;-65
2023/01/07 08:59:12;;;;;;;3.83;2.65;;;;;;;10.67;78.61;99321.31;4951905;29;20479;-65
2023/01/07 09:01:57;;;;;;;3.63;2.40;;;;;;;10.61;78.29;99326.91;4953333;29;20058;-67
2023/01/07 09:04:42;;;;;;;5.68;2.92;;;;;;;10.74;86.11;99321.75;4945043;29;20082;-66
2023/01/07 09:07:26;;;;;;;4.80;3.38;;;;;;;10.43;81.11;99320.97;4952474;28;20038;-67
2023/01/07 09:10:11;;;;;;;3.75;2.15;;;;;;;10.71;84.26;99322.81;4953043;29;20044;-70
2023/01/07 09:12:56;;;;;;;5.35;2.15;;;;;;;10.60;87.18;99325.22;4938845;29;20487;-64
2023/01/07 09:15:44;;;;;;;4.50;2.72;;;;;;;10.80;82.05;99317.94;4941202;29;20074;-64
2023/01/07 09:18:28;;;;;;;3.50;1.90;;;;;;;10.88;81.30;99320.09;4952883;29;20066;-64
2023/01/07 09:21:13;;;;;;;3.22;2.13;;;;;;;10.84;79.12;99320.28;4951678;29;20054;-64
2023/01/07 09:23:57;;;;;;;3.33;2.15;;;;;;;10.64;78.87;99321.47;4942751;29;20047;-67
2023/01/07 09:26:42;;;;;;;4.07;2.58;;;;;;;10.33;80.28;99320.66;4953397;29;20043;-71
2023/01/07 09:29:27;;;;;;;3.08;2.20;;;;;;;10.13;81.69;99324.44;4952901;29;20043;-69
2023/01/07 09:32:12;;;;;;;3.35;2.13;;;;;;;10.36;80.62;99320.50;4953238;29;20530;-68
2023/01/07 09:34:57;;;;;;;3.05;2.30;;;;;;;10.43;82.04;99318.34;4952831;29;20154;-65
2023/01/07 09:37:42;;;;;;;2.85;2.00;;;;;;;10.44;80.82;99310.41;4922763;29;20511;-73
2023/01/07 09:40:34;;;;;;;5.03;2.08;;;;;;;10.43;79.99;99305.25;4941448;29;20049;-71
2023/01/07 09:43:42;;;;;;;3.40;1.90;;;;;;;10.29;81.10;99300.81;4939349;29;20054;-73
2023/01/07 09:46:52;;;;;;;4.07;2.58;;;;;;;10.07;81.33;99299.47;4943406;29;20043;-76
2023/01/07 09:49:50;;;;;;;3.13;1.90;;;;;;;10.08;82.94;99294.16;4936675;29;20051;-74
2023/01/07 09:52:52;;;;;;;4.45;1.90;;;;;;;10.28;82.06;99293.91;4927974;29;20039;-74
2023/01/07 09:55:40;;;;;;;2.22;1.50;;;;;;;10.54;82.87;99296.78;4910772;29;20054;-77
2023/01/07 09:58:27;;;;;;;3.00;1.65;;;;;;;10.46;81.60;99284.97;4935296;29;20416;-76
2023/01/07 10:01:25;;;;;;;2.92;1.70;;;;;;;10.49;80.63;99286.59;4938926;29;20051;-75
2023/01/07 10:04:35;;;;;;;2.58;1.60;;;;;;;10.59;83.31;99282.44;4952108;28;20411;-77
2023/01/07 10:07:36;;;;;;;2.75;1.70;;;;;;;10.63;83.87;99277.03;4952530;29;20035;-74
2023/01/07 10:10:44;;;;;;;3.33;1.77;;;;;;;10.42;81.45;99275.59;4910950;29;20055;-72
2023/01/07 10:13:48;;;;;;;3.08;1.80;;;;;;;10.52;81.58;99272.44;4912211;29;20103;-72
2023/01/07 10:16:32;;;;;;;5.00;3.13;;;;;;;10.32;81.41;99266.59;4909498;29;20200;-74
2023/01/07 10:19:27;;;;;;;5.60;3.45;;;;;;;10.51;86.82;99266.34;4920631;29;20091;-78
2023/01/07 10:22:23;;;;;;;3.58;2.17;;;;;;;10.29;83.29;99253.69;4930980;29;20103;-81
2023/01/07 10:25:18;;;;;;;3.00;2.03;;;;;;;10.28;83.00;99247.59;4932101;29;20056;-78
2023/01/07 10:28:09;;;;;;;2.83;1.67;;;;;;;10.39;81.58;99254.81;4931564;29;20445;-73
2023/01/07 10:30:59;;;;;;;3.42;1.60;;;;;;;10.50;80.61;99242.88;4933346;29;20055;-71
2023/01/07 10:33:44;;;;;;;2.75;1.60;;;;;;;10.50;80.68;99240.25;4932208;29;20051;-71
2023/01/07 10:36:56;;;;;;;2.20;1.58;;;;;;;10.45;81.08;99228.25;4932853;29;20059;-78
2023/01/07 10:39:59;;;;;;;2.37;1.40;;;;;;;10.80;82.04;99236.69;4931838;29;20087;-75
2023/01/07 10:42:48;;;;;;;1.77;1.48;;;;;;;10.84;78.70;99225.94;4922428;29;20054;-72
2023/01/07 10:45:59;;;;;;;3.38;1.63;;;;;;;11.20;81.73;99226.31;4918232;29;20106;-66
2023/01/07 10:49:26;;;;;;;3.10;1.80;;;;;;;10.84;79.84;99225.06;4940552;29;20495;-69
2023/01/07 10:52:46;;;;;;;2.75;1.73;;;;;;;10.97;80.76;99222.53;4954260;28;20274;-69
2023/01/07 10:55:50;;;;;;;3.22;1.70;;;;;;;10.74;80.14;99219.56;4952910;28;20086;-70
2023/01/07 10:58:44;;;;;;;2.28;1.60;;;;;;;10.84;79.53;99211.97;4950066;28;20051;-70
2023/01/07 11:01:39;;;;;;;2.90;1.50;;;;;;;10.77;80.05;99214.13;4947463;28;20458;-74
2023/01/07 11:04:25;;;;;;;10.48;5.47;;;;;;;10.80;85.16;99202.63;4936210;28;20043;-76
2023/01/07 11:07:23;;;;;;;8.50;5.32;;;;;;;10.46;82.35;99216.00;4925666;28;20078;-78
2023/01/07 11:10:14;;;;;;;5.25;2.80;;;;;;;10.49;81.32;99204.53;4938583;29;20048;-70
2023/01/07 11:13:07;;;;;;;5.55;2.35;;;;;;;12.13;96.73;99204.63;4936948;28;20399;-53
2023/01/07 11:15:57;;;;;;;3.35;1.60;;;;;;;12.16;78.75;99205.25;4920142;28;20050;-54
2023/01/07 11:18:59;;;;;;;2.95;1.67;;;;;;;11.57;78.69;99198.66;4950954;28;20050;-72
2023/01/07 11:21:51;;;;;;;4.32;2.58;;;;;;;11.04;80.10;99186.28;4937354;29;20758;-70
2023/01/07 11:24:36;;;;;;;;;;;;;;;12.86;97.47;99175.09;4937489;29;20126;-62
2023/01/07 11:27:24;;;;;;;3.80;2.25;;;;;;;12.83;74.80;99181.41;4950476;28;19933;-70
2023/01/07 11:30:35;;;;;;;5.55;4.20;;;;;;;12.86;93.28;99165.41;4951723;28;20065;-61
2023/01/07 11:33:40;;;;;;;4.88;1.95;;;;;;;12.60;80.08;99159.41;4948859;28;20135;-61
2023/01/07 11:36:40;;;;;;;;;;;;;;;12.82;83.24;99158.69;4950157;28;20121;-64
2023/01/07 11:39:33;;;;;;;4.18;2.10;;;;;;;12.39;81.30;99155.53;4934123;29;19927;-67
2023/01/07 11:45:26;;;;;;;3.92;1.50;;;;;;;13.73;71.36;99144.25;4944981;28;20568;-73
2023/01/07 11:48:31;;;;;;;2.38;1.52;;;;;;;12.56;73.98;99141.22;4953799;29;20050;-71
2023/01/07 11:51:19;;;;;;;1.73;1.02;;;;;;;12.17;72.84;99140.44;4954286;29;20487;-70
2023/01/07 11:54:04;;;;;;;2.00;1.10;;;;;;;11.93;74.37;99146.41;4926172;29;20102;-78
2023/01/07 11:56:49;;;;;;;2.42;1.20;;;;;;;11.93;76.24;99141.16;4954357;29;20499;-68
2023/01/07 11:59:34;;;;;;;2.13;1.30;;;;;;;11.90;74.27;99136.09;4927837;29;20063;-74
2023/01/07 12:02:25;;;;;;;2.22;1.30;;;;;;;11.49;74.82;99130.09;4939234;29;20031;-67
2023/01/07 12:05:22;;;;;;;2.17;1.60;;;;;;;11.54;76.13;99123.59;4925133;29;20050;-67
2023/01/07 12:08:19;;;;;;;2.65;1.80;;;;;;;11.49;76.12;99117.78;4952329;29;20495;-69
2023/01/07 12:11:10;;;;;;;3.53;1.52;;;;;;;13.43;81.82;99113.06;4951374;28;20162;-61
2023/01/07 12:13:54;;;;;;;3.35;1.70;;;;;;;14.12;77.90;99101.81;4939130;29;20037;-62
2023/01/07 12:16:41;;;;;;;3.25;1.80;;;;;;;14.36;66.67;99098.22;4956654;29;20102;-62
2023/01/07 12:19:46;;;;;;;2.25;1.48;;;;;;;15.13;72.62;99099.09;4941020;29;20069;-62
2023/01/07 12:22:37;;;;;;;4.30;1.90;;;;;;;13.57;69.49;99092.78;4924422;29;20042;-68
2023/01/07 12:25:45;;;;;;;2.55;1.83;;;;;;;13.96;71.75;99096.88;4938989;29;20139;-60
2023/01/07 12:28:57;;;;;;;4.57;2.08;;;;;;;13.94;65.32;99093.56;4952028;29;20032;-62
2023/01/07 12:31:44;;;;;;;;;;;;;;;14.21;68.00;99082.66;4952236;29;20039;-60
2023/01/07 12:34:53;;;;;;;6.47;1.65;;;;;;;16.43;63.26;99076.84;4936284;29;19923;-59
2023/01/07 12:37:42;;;;;;;2.67;1.52;;;;;;;16.39;57.69;99073.63;4952325;29;20047;-64
2023/01/07 12:40:37;;;;;;;2.83;2.28;;;;;;;15.31;60.24;99074.78;4951153;29;20843;-64
2023/01/07 12:43:32;;;;;;;2.50;1.65;;;;;;;15.22;61.44;99080.84;4951739;28;20046;-67
2023/01/07 12:46:19;;;;;;;3.08;1.63;;;;;;;15.78;59.29;99081.47;4937488;29;20039;-69
2023/01/07 12:49:55;;;;;;;1.70;1.38;;;;;;;15.64;58.49;99065.00;4944558;29;20062;-65
2023/01/07 12:52:45;;;;;;;2.65;1.60;;;;;;;16.33;56.62;99060.97;4952892;29;20059;-67
2023/01/07 12:55:35;;;;;;;2.28;1.50;;;;;;;16.34;55.74;99055.53;4915109;29;20099;-66
2023/01/07 12:58:43;;;;;;;2.95;1.83;;;;;;;15.98;56.88;99050.72;4911889;29;20068;-67
2023/01/07 13:01:34;;;;;;;2.65;1.48;;;;;;;16.29;56.91;99054.28;4923603;29;20485;-68
2023/01/07 13:04:38;;;;;;;4.95;2.38;;;;;;;16.16;57.42;99050.06;4913864;29;20064;-65
2023/01/07 13:07:41;;;;;;;5.05;3.35;;;;;;;16.34;56.78;99044.97;4915211;29;20052;-66
2023/01/07 13:10:41;;;;;;;5.90;3.60;;;;;;;15.75;59.33;99036.81;4904201;29;20055;-65
2023/01/07 13:13:32;;;;;;;9.23;3.50;;;;;;;14.74;62.78;99043.34;4915078;29;20051;-65
2023/01/07 13:16:17;;;;;;;5.35;3.45;;;;;;;15.57;60.48;99037.41;4915417;29;20044;-65
2023/01/07 13:19:01;;;;;;;6.28;3.17;;;;;;;16.41;58.45;99026.75;4926873;29;20095;-65
2023/01/07 13:22:12;;;;;;;4.70;2.30;;;;;;;16.86;56.13;99033.31;4914634;29;20043;-66
2023/01/07 13:25:31;;;;;;;4.20;2.33;;;;;;;16.31;56.93;99024.09;4889299;29;20095;-66
2023/01/07 13:28:28;;;;;;;4.72;2.30;;;;;;;16.23;57.69;99026.59;4909369;29;20162;-66